KSAV/SAV METAR and TAF weather

Enter ICAO airport designator
Station Type Date Time Source
KSAV METAR 2019/10/23 12:53 UTC NOAA

KSAV 231253Z 34007KT 10SM FEW250 14/07 A3014 RMK AO2 SLP206 T01390072


Station Type Date Time Source
KSAV Decoded METAR 2019/10/23 12:53 UTC NOAA

SAVANNAH INTERNATIONAL AIRPORT , GA, United States (KSAV) 32-07N 81-12W 14M
Oct 23, 2019 - 08:53 AM EDT / 2019.10.23 1253 UTC
Wind: from the NNW (340 degrees) at 8 MPH (7 KT):0
Visibility: 10 mile(s):0
Sky conditions: mostly clear
Temperature: 57.0 F (13.9 C)
Dew Point: 45.0 F (7.2 C)
Relative Humidity: 63%
Pressure (altimeter): 30.14 in. Hg (1020 hPa)
ob: KSAV 231253Z 34007KT 10SM FEW250 14/07 A3014 RMK AO2 SLP206 T01390072
cycle: 13

Station Type Date Time Source
KSAV TAF 2019/10/23 12:28 UTC NOAA

TAF KSAV 231120Z 2312/2412 31004KT P6SM FEW250
FM231500 36008KT P6SM SKC
FM240100 VRB03KT P6SM FEW250

Example: see airport list